sensor_id;sensor_type;location;lat;lon;timestamp;pressure;altitude;pressure_sealevel;temperature;humidity
69027;BME280;56080;47.594;19.116;2022-09-09T00:02:48;99975;;;18.66;93.23
69027;BME280;56080;47.594;19.116;2022-09-09T00:07:52;99966;;;18.56;92.47
69027;BME280;56080;47.594;19.116;2022-09-09T00:22:47;99969;;;18.31;92.52
69027;BME280;56080;47.594;19.116;2022-09-09T00:27:47;99975;;;18.43;91.71
69027;BME280;56080;47.594;19.116;2022-09-09T00:32:45;99976;;;18.36;90.68
69027;BME280;56080;47.594;19.116;2022-09-09T00:37:46;99976;;;18.44;92.10
69027;BME280;56080;47.594;19.116;2022-09-09T00:42:46;99978;;;18.40;92.25
69027;BME280;56080;47.594;19.116;2022-09-09T00:47:46;99991;;;18.32;92.30
69027;BME280;56080;47.594;19.116;2022-09-09T00:52:56;99987;;;18.09;91.92
69027;BME280;56080;47.594;19.116;2022-09-09T00:57:46;99991;;;18.30;91.56
69027;BME280;56080;47.594;19.116;2022-09-09T01:07:47;99979;;;18.27;90.27
69027;BME280;56080;47.594;19.116;2022-09-09T01:12:45;100002;;;18.31;90.56
69027;BME280;56080;47.594;19.116;2022-09-09T01:22:50;100007;;;18.27;90.67
69027;BME280;56080;47.594;19.116;2022-09-09T01:27:45;100006;;;18.14;91.83
69027;BME280;56080;47.594;19.116;2022-09-09T01:32:46;100007;;;18.24;90.52
69027;BME280;56080;47.594;19.116;2022-09-09T01:37:45;100016;;;18.31;90.65
69027;BME280;56080;47.594;19.116;2022-09-09T01:42:45;100012;;;18.28;91.51
69027;BME280;56080;47.594;19.116;2022-09-09T01:47:45;100009;;;18.08;89.71
69027;BME280;56080;47.594;19.116;2022-09-09T01:52:45;100011;;;17.86;91.80
69027;BME280;56080;47.594;19.116;2022-09-09T01:57:50;100018;;;18.12;93.16
69027;BME280;56080;47.594;19.116;2022-09-09T02:07:47;100024;;;17.78;94.58
69027;BME280;56080;47.594;19.116;2022-09-09T02:12:46;100017;;;17.67;93.75
69027;BME280;56080;47.594;19.116;2022-09-09T02:17:45;100033;;;17.78;95.06
69027;BME280;56080;47.594;19.116;2022-09-09T02:22:45;100034;;;17.76;94.94
69027;BME280;56080;47.594;19.116;2022-09-09T02:27:45;100023;;;17.65;95.64
69027;BME280;56080;47.594;19.116;2022-09-09T02:32:45;100027;;;17.48;96.66
69027;BME280;56080;47.594;19.116;2022-09-09T02:37:46;100029;;;17.45;94.58
69027;BME280;56080;47.594;19.116;2022-09-09T02:42:46;100028;;;17.65;94.05
69027;BME280;56080;47.594;19.116;2022-09-09T02:57:47;100024;;;17.75;94.28
69027;BME280;56080;47.594;19.116;2022-09-09T03:02:45;100028;;;17.71;95.01
69027;BME280;56080;47.594;19.116;2022-09-09T03:07:45;100017;;;17.62;95.48
69027;BME280;56080;47.594;19.116;2022-09-09T03:12:45;100018;;;17.41;95.19
69027;BME280;56080;47.594;19.116;2022-09-09T03:17:45;100020;;;17.57;90.12
69027;BME280;56080;47.594;19.116;2022-09-09T03:22:45;100025;;;17.61;92.26
69027;BME280;56080;47.594;19.116;2022-09-09T03:27:45;100026;;;17.45;94.72
69027;BME280;56080;47.594;19.116;2022-09-09T03:32:49;100030;;;17.23;94.89
69027;BME280;56080;47.594;19.116;2022-09-09T03:37:45;100028;;;17.18;96.49
69027;BME280;56080;47.594;19.116;2022-09-09T03:42:45;100034;;;17.00;97.02
69027;BME280;56080;47.594;19.116;2022-09-09T03:47:45;100036;;;17.01;96.47
69027;BME280;56080;47.594;19.116;2022-09-09T03:52:46;100026;;;17.13;95.70
69027;BME280;56080;47.594;19.116;2022-09-09T03:57:46;100025;;;16.99;96.87
69027;BME280;56080;47.594;19.116;2022-09-09T04:02:45;100041;;;17.08;96.46
69027;BME280;56080;47.594;19.116;2022-09-09T04:07:45;100043;;;17.10;95.32
69027;BME280;56080;47.594;19.116;2022-09-09T04:12:50;100051;;;17.06;95.66
69027;BME280;56080;47.594;19.116;2022-09-09T04:17:45;100051;;;17.05;95.43
69027;BME280;56080;47.594;19.116;2022-09-09T04:22:45;100060;;;16.83;95.41
69027;BME280;56080;47.594;19.116;2022-09-09T04:27:45;100069;;;16.86;95.42
69027;BME280;56080;47.594;19.116;2022-09-09T04:32:45;100058;;;16.69;96.22
69027;BME280;56080;47.594;19.116;2022-09-09T04:37:45;100059;;;16.87;95.42
69027;BME280;56080;47.594;19.116;2022-09-09T04:42:46;100059;;;17.08;94.72
69027;BME280;56080;47.594;19.116;2022-09-09T04:47:45;100064;;;16.96;97.03
69027;BME280;56080;47.594;19.116;2022-09-09T04:52:45;100060;;;17.05;95.53
69027;BME280;56080;47.594;19.116;2022-09-09T04:57:45;100059;;;17.12;95.27
69027;BME280;56080;47.594;19.116;2022-09-09T05:02:45;100056;;;17.19;95.44
69027;BME280;56080;47.594;19.116;2022-09-09T05:07:45;100048;;;17.31;95.98
69027;BME280;56080;47.594;19.116;2022-09-09T05:12:51;100056;;;17.41;94.98
69027;BME280;56080;47.594;19.116;2022-09-09T05:17:45;100062;;;17.52;93.30
69027;BME280;56080;47.594;19.116;2022-09-09T05:22:45;100068;;;17.55;93.25
69027;BME280;56080;47.594;19.116;2022-09-09T05:27:45;100072;;;17.53;93.81
69027;BME280;56080;47.594;19.116;2022-09-09T05:32:45;100066;;;17.63;93.02
69027;BME280;56080;47.594;19.116;2022-09-09T05:37:46;100071;;;17.83;91.77
69027;BME280;56080;47.594;19.116;2022-09-09T05:42:45;100066;;;18.10;92.28
69027;BME280;56080;47.594;19.116;2022-09-09T05:47:45;100065;;;18.32;90.64
69027;BME280;56080;47.594;19.116;2022-09-09T05:52:45;100063;;;18.55;89.73
69027;BME280;56080;47.594;19.116;2022-09-09T05:57:49;100064;;;18.59;85.73
69027;BME280;56080;47.594;19.116;2022-09-09T06:02:50;100064;;;18.95;88.79
69027;BME280;56080;47.594;19.116;2022-09-09T06:07:45;100068;;;19.15;87.48
69027;BME280;56080;47.594;19.116;2022-09-09T06:12:45;100073;;;19.26;83.70
69027;BME280;56080;47.594;19.116;2022-09-09T06:17:45;100081;;;19.49;84.46
69027;BME280;56080;47.594;19.116;2022-09-09T06:22:49;100084;;;19.59;83.36
69027;BME280;56080;47.594;19.116;2022-09-09T06:32:45;100084;;;19.66;81.60
69027;BME280;56080;47.594;19.116;2022-09-09T06:37:45;100090;;;19.84;81.49
69027;BME280;56080;47.594;19.116;2022-09-09T06:42:45;100092;;;20.19;81.14
69027;BME280;56080;47.594;19.116;2022-09-09T06:47:45;100084;;;20.16;79.68
69027;BME280;56080;47.594;19.116;2022-09-09T06:52:46;100089;;;20.13;78.20
69027;BME280;56080;47.594;19.116;2022-09-09T06:57:45;100095;;;20.14;77.64
69027;BME280;56080;47.594;19.116;2022-09-09T07:02:45;100095;;;20.57;77.15
69027;BME280;56080;47.594;19.116;2022-09-09T07:07:45;100101;;;20.60;77.19
69027;BME280;56080;47.594;19.116;2022-09-09T07:12:45;100108;;;20.48;77.71
69027;BME280;56080;47.594;19.116;2022-09-09T07:17:45;100102;;;20.22;78.66
69027;BME280;56080;47.594;19.116;2022-09-09T07:22:45;100105;;;19.99;79.99
69027;BME280;56080;47.594;19.116;2022-09-09T07:27:45;100104;;;19.96;80.54
69027;BME280;56080;47.594;19.116;2022-09-09T07:32:45;100106;;;20.04;80.00
69027;BME280;56080;47.594;19.116;2022-09-09T07:37:51;100105;;;20.06;79.63
69027;BME280;56080;47.594;19.116;2022-09-09T07:47:45;100111;;;19.93;80.10
69027;BME280;56080;47.594;19.116;2022-09-09T07:52:45;100121;;;19.90;80.59
69027;BME280;56080;47.594;19.116;2022-09-09T07:57:45;100119;;;20.11;80.30
69027;BME280;56080;47.594;19.116;2022-09-09T08:02:46;100123;;;20.14;79.38
69027;BME280;56080;47.594;19.116;2022-09-09T08:07:45;100120;;;20.34;78.54
69027;BME280;56080;47.594;19.116;2022-09-09T08:12:55;100123;;;20.33;78.19
69027;BME280;56080;47.594;19.116;2022-09-09T08:17:45;100124;;;21.42;74.27
69027;BME280;56080;47.594;19.116;2022-09-09T08:22:45;100128;;;24.17;62.97
69027;BME280;56080;47.594;19.116;2022-09-09T08:27:45;100116;;;25.96;55.66
69027;BME280;56080;47.594;19.116;2022-09-09T08:32:48;100118;;;26.71;50.64
69027;BME280;56080;47.594;19.116;2022-09-09T08:37:45;100109;;;27.23;48.95
69027;BME280;56080;47.594;19.116;2022-09-09T08:42:48;100105;;;27.59;48.12
69027;BME280;56080;47.594;19.116;2022-09-09T08:47:51;100112;;;28.08;45.54
69027;BME280;56080;47.594;19.116;2022-09-09T08:52:51;100118;;;27.03;47.99
69027;BME280;56080;47.594;19.116;2022-09-09T08:57:46;100123;;;29.01;45.32
69027;BME280;56080;47.594;19.116;2022-09-09T09:02:48;100125;;;29.03;45.61
69027;BME280;56080;47.594;19.116;2022-09-09T09:07:55;100118;;;28.18;45.12
69027;BME280;56080;47.594;19.116;2022-09-09T09:12:46;100121;;;27.82;46.13
69027;BME280;56080;47.594;19.116;2022-09-09T09:17:45;100117;;;28.08;45.51
69027;BME280;56080;47.594;19.116;2022-09-09T09:27:57;100117;;;27.36;46.28
69027;BME280;56080;47.594;19.116;2022-09-09T09:32:53;100105;;;27.27;47.08
69027;BME280;56080;47.594;19.116;2022-09-09T09:37:55;100099;;;27.46;48.98
69027;BME280;56080;47.594;19.116;2022-09-09T09:42:54;100097;;;27.10;48.09
69027;BME280;56080;47.594;19.116;2022-09-09T09:47:45;100086;;;26.63;49.20
69027;BME280;56080;47.594;19.116;2022-09-09T09:52:53;100086;;;26.73;48.88
69027;BME280;56080;47.594;19.116;2022-09-09T09:57:45;100087;;;26.52;49.48
69027;BME280;56080;47.594;19.116;2022-09-09T10:02:45;100089;;;26.43;49.34
69027;BME280;56080;47.594;19.116;2022-09-09T10:07:46;100097;;;25.42;50.06
69027;BME280;56080;47.594;19.116;2022-09-09T10:12:49;100094;;;25.50;49.62
69027;BME280;56080;47.594;19.116;2022-09-09T10:22:48;100094;;;25.19;50.99
69027;BME280;56080;47.594;19.116;2022-09-09T10:27:50;100088;;;24.84;51.61
69027;BME280;56080;47.594;19.116;2022-09-09T10:32:46;100090;;;25.09;50.58
69027;BME280;56080;47.594;19.116;2022-09-09T10:37:50;100085;;;24.93;50.42
69027;BME280;56080;47.594;19.116;2022-09-09T10:42:46;100082;;;24.68;50.61
69027;BME280;56080;47.594;19.116;2022-09-09T10:57:47;100080;;;24.72;50.05
69027;BME280;56080;47.594;19.116;2022-09-09T11:02:46;100082;;;24.52;50.50
69027;BME280;56080;47.594;19.116;2022-09-09T11:08:01;100074;;;24.44;49.68
69027;BME280;56080;47.594;19.116;2022-09-09T11:12:45;100084;;;24.53;48.26
69027;BME280;56080;47.594;19.116;2022-09-09T11:17:48;100080;;;24.61;47.99
69027;BME280;56080;47.594;19.116;2022-09-09T11:22:48;100072;;;24.77;48.68
69027;BME280;56080;47.594;19.116;2022-09-09T11:42:46;100061;;;25.46;48.11
69027;BME280;56080;47.594;19.116;2022-09-09T11:47:53;100056;;;25.12;47.84
69027;BME280;56080;47.594;19.116;2022-09-09T11:52:46;100045;;;24.85;48.76
69027;BME280;56080;47.594;19.116;2022-09-09T11:57:56;100035;;;24.76;47.02
69027;BME280;56080;47.594;19.116;2022-09-09T12:02:48;100043;;;24.86;45.87
69027;BME280;56080;47.594;19.116;2022-09-09T12:07:50;100042;;;24.93;47.20
69027;BME280;56080;47.594;19.116;2022-09-09T12:12:45;100038;;;24.90;48.39
69027;BME280;56080;47.594;19.116;2022-09-09T12:17:46;100045;;;24.70;48.69
69027;BME280;56080;47.594;19.116;2022-09-09T12:22:47;100050;;;24.69;48.37
69027;BME280;56080;47.594;19.116;2022-09-09T12:27:49;100060;;;25.03;47.34
69027;BME280;56080;47.594;19.116;2022-09-09T12:32:45;100044;;;24.95;47.18
69027;BME280;56080;47.594;19.116;2022-09-09T12:42:45;100018;;;25.10;48.96
69027;BME280;56080;47.594;19.116;2022-09-09T12:52:47;100020;;;24.97;47.52
69027;BME280;56080;47.594;19.116;2022-09-09T12:57:45;100017;;;25.05;47.62
69027;BME280;56080;47.594;19.116;2022-09-09T13:02:46;100006;;;24.96;47.74
69027;BME280;56080;47.594;19.116;2022-09-09T13:07:45;99999;;;24.86;47.75
69027;BME280;56080;47.594;19.116;2022-09-09T13:12:45;99994;;;25.00;48.13
69027;BME280;56080;47.594;19.116;2022-09-09T13:17:49;99986;;;24.95;46.95
69027;BME280;56080;47.594;19.116;2022-09-09T13:22:46;99983;;;24.85;47.16
69027;BME280;56080;47.594;19.116;2022-09-09T13:32:45;99958;;;25.21;45.75
69027;BME280;56080;47.594;19.116;2022-09-09T13:37:46;99960;;;25.16;46.60
69027;BME280;56080;47.594;19.116;2022-09-09T13:42:45;99966;;;25.50;45.47
69027;BME280;56080;47.594;19.116;2022-09-09T13:47:46;99964;;;25.53;44.18
69027;BME280;56080;47.594;19.116;2022-09-09T13:52:45;99960;;;25.50;43.83
69027;BME280;56080;47.594;19.116;2022-09-09T13:58:01;99956;;;25.54;44.45
69027;BME280;56080;47.594;19.116;2022-09-09T14:02:45;99952;;;25.56;42.93
69027;BME280;56080;47.594;19.116;2022-09-09T14:07:45;99942;;;25.58;43.27
69027;BME280;56080;47.594;19.116;2022-09-09T14:12:46;99937;;;25.60;42.77
69027;BME280;56080;47.594;19.116;2022-09-09T14:17:45;99926;;;25.57;42.69
69027;BME280;56080;47.594;19.116;2022-09-09T14:22:45;99921;;;25.51;42.26
69027;BME280;56080;47.594;19.116;2022-09-09T14:32:46;99920;;;25.47;43.00
69027;BME280;56080;47.594;19.116;2022-09-09T14:37:46;99920;;;25.44;45.01
69027;BME280;56080;47.594;19.116;2022-09-09T14:42:45;99918;;;25.37;44.02
69027;BME280;56080;47.594;19.116;2022-09-09T14:47:45;99912;;;25.32;43.70
69027;BME280;56080;47.594;19.116;2022-09-09T14:52:45;99907;;;25.30;43.79
69027;BME280;56080;47.594;19.116;2022-09-09T15:02:45;99910;;;25.27;45.70
69027;BME280;56080;47.594;19.116;2022-09-09T15:07:45;99914;;;25.22;46.77
69027;BME280;56080;47.594;19.116;2022-09-09T15:12:45;99918;;;25.23;47.26
69027;BME280;56080;47.594;19.116;2022-09-09T15:22:45;99924;;;25.20;44.88
69027;BME280;56080;47.594;19.116;2022-09-09T15:32:45;99926;;;25.19;46.05
69027;BME280;56080;47.594;19.116;2022-09-09T15:37:45;99921;;;25.24;44.72
69027;BME280;56080;47.594;19.116;2022-09-09T15:47:46;99907;;;25.22;45.11
69027;BME280;56080;47.594;19.116;2022-09-09T15:52:45;99918;;;25.24;45.64
69027;BME280;56080;47.594;19.116;2022-09-09T15:57:45;99924;;;25.15;45.80
69027;BME280;56080;47.594;19.116;2022-09-09T16:02:47;99917;;;25.05;46.17
69027;BME280;56080;47.594;19.116;2022-09-09T16:07:46;99918;;;24.93;45.06
69027;BME280;56080;47.594;19.116;2022-09-09T16:12:45;99918;;;24.86;46.72
69027;BME280;56080;47.594;19.116;2022-09-09T16:17:46;99931;;;24.79;46.91
69027;BME280;56080;47.594;19.116;2022-09-09T16:22:45;99934;;;24.69;48.54
69027;BME280;56080;47.594;19.116;2022-09-09T16:27:46;99935;;;24.49;49.24
69027;BME280;56080;47.594;19.116;2022-09-09T16:32:45;99940;;;24.50;51.62
69027;BME280;56080;47.594;19.116;2022-09-09T16:37:45;99943;;;24.42;51.79
69027;BME280;56080;47.594;19.116;2022-09-09T16:42:45;99940;;;24.22;51.68
69027;BME280;56080;47.594;19.116;2022-09-09T16:47:45;99930;;;24.13;51.89
69027;BME280;56080;47.594;19.116;2022-09-09T16:52:45;99930;;;24.01;52.82
69027;BME280;56080;47.594;19.116;2022-09-09T16:57:46;99925;;;23.97;54.10
69027;BME280;56080;47.594;19.116;2022-09-09T17:02:45;99936;;;23.84;54.67
69027;BME280;56080;47.594;19.116;2022-09-09T17:07:45;99941;;;23.73;55.40
69027;BME280;56080;47.594;19.116;2022-09-09T17:12:46;99944;;;23.57;57.03
69027;BME280;56080;47.594;19.116;2022-09-09T17:17:49;99940;;;23.48;57.49
69027;BME280;56080;47.594;19.116;2022-09-09T17:22:45;99947;;;23.40;58.63
69027;BME280;56080;47.594;19.116;2022-09-09T17:27:45;99955;;;23.29;59.77
69027;BME280;56080;47.594;19.116;2022-09-09T17:32:46;99948;;;23.16;61.52
69027;BME280;56080;47.594;19.116;2022-09-09T17:37:45;99950;;;23.09;61.67
69027;BME280;56080;47.594;19.116;2022-09-09T17:42:45;99950;;;22.92;64.84
69027;BME280;56080;47.594;19.116;2022-09-09T17:47:45;99952;;;22.84;65.88
69027;BME280;56080;47.594;19.116;2022-09-09T17:52:45;99948;;;22.72;66.97
69027;BME280;56080;47.594;19.116;2022-09-09T17:57:46;99953;;;22.64;68.02
69027;BME280;56080;47.594;19.116;2022-09-09T18:02:47;99963;;;22.47;68.14
69027;BME280;56080;47.594;19.116;2022-09-09T18:07:45;99968;;;22.41;67.22
69027;BME280;56080;47.594;19.116;2022-09-09T18:12:45;99969;;;22.32;67.50
69027;BME280;56080;47.594;19.116;2022-09-09T18:17:45;99955;;;22.27;68.02
69027;BME280;56080;47.594;19.116;2022-09-09T18:22:45;99949;;;22.08;67.63
69027;BME280;56080;47.594;19.116;2022-09-09T18:27:45;99962;;;22.19;67.47
69027;BME280;56080;47.594;19.116;2022-09-09T18:37:46;99958;;;22.04;68.19
69027;BME280;56080;47.594;19.116;2022-09-09T18:42:45;99964;;;21.99;68.03
69027;BME280;56080;47.594;19.116;2022-09-09T18:47:46;99975;;;22.00;67.94
69027;BME280;56080;47.594;19.116;2022-09-09T18:52:45;99981;;;21.98;69.19
69027;BME280;56080;47.594;19.116;2022-09-09T18:57:46;99972;;;21.76;69.03
69027;BME280;56080;47.594;19.116;2022-09-09T19:02:47;99970;;;21.82;67.97
69027;BME280;56080;47.594;19.116;2022-09-09T19:07:45;99982;;;21.75;67.49
69027;BME280;56080;47.594;19.116;2022-09-09T19:12:45;99978;;;21.79;66.75
69027;BME280;56080;47.594;19.116;2022-09-09T19:17:45;99971;;;21.75;67.01
69027;BME280;56080;47.594;19.116;2022-09-09T19:22:46;99974;;;21.67;68.69
69027;BME280;56080;47.594;19.116;2022-09-09T19:27:45;99974;;;21.63;69.81
69027;BME280;56080;47.594;19.116;2022-09-09T19:32:55;99973;;;21.61;70.57
69027;BME280;56080;47.594;19.116;2022-09-09T19:37:45;99970;;;21.59;71.51
69027;BME280;56080;47.594;19.116;2022-09-09T19:42:47;99972;;;21.44;72.91
69027;BME280;56080;47.594;19.116;2022-09-09T19:47:45;99970;;;21.43;73.55
69027;BME280;56080;47.594;19.116;2022-09-09T19:52:46;99967;;;21.48;74.12
69027;BME280;56080;47.594;19.116;2022-09-09T20:02:57;99971;;;21.37;74.63
69027;BME280;56080;47.594;19.116;2022-09-09T20:07:45;99981;;;21.29;75.63
69027;BME280;56080;47.594;19.116;2022-09-09T20:12:45;99979;;;21.24;76.21
69027;BME280;56080;47.594;19.116;2022-09-09T20:17:45;99984;;;21.22;76.64
69027;BME280;56080;47.594;19.116;2022-09-09T20:22:45;99993;;;20.98;77.90
69027;BME280;56080;47.594;19.116;2022-09-09T20:27:45;99997;;;20.95;78.20
69027;BME280;56080;47.594;19.116;2022-09-09T20:32:45;100000;;;20.98;77.83
69027;BME280;56080;47.594;19.116;2022-09-09T20:37:45;99998;;;21.08;77.62
69027;BME280;56080;47.594;19.116;2022-09-09T20:42:45;99996;;;21.03;77.68
69027;BME280;56080;47.594;19.116;2022-09-09T20:47:46;99995;;;20.99;77.95
69027;BME280;56080;47.594;19.116;2022-09-09T20:52:46;99995;;;21.10;78.42
69027;BME280;56080;47.594;19.116;2022-09-09T20:57:45;99988;;;20.85;79.90
69027;BME280;56080;47.594;19.116;2022-09-09T21:02:45;99978;;;20.92;80.56
69027;BME280;56080;47.594;19.116;2022-09-09T21:07:45;99972;;;20.82;81.03
69027;BME280;56080;47.594;19.116;2022-09-09T21:12:45;99962;;;20.75;82.59
69027;BME280;56080;47.594;19.116;2022-09-09T21:17:45;99964;;;20.88;82.25
69027;BME280;56080;47.594;19.116;2022-09-09T21:22:45;99963;;;20.49;84.45
69027;BME280;56080;47.594;19.116;2022-09-09T21:27:45;99959;;;20.67;83.20
69027;BME280;56080;47.594;19.116;2022-09-09T21:32:45;99966;;;20.64;84.40
69027;BME280;56080;47.594;19.116;2022-09-09T21:42:46;99969;;;20.45;84.96
69027;BME280;56080;47.594;19.116;2022-09-09T21:47:47;99969;;;20.41;85.25
69027;BME280;56080;47.594;19.116;2022-09-09T21:52:45;99969;;;20.45;85.94
69027;BME280;56080;47.594;19.116;2022-09-09T21:57:45;99962;;;20.47;85.98
69027;BME280;56080;47.594;19.116;2022-09-09T22:02:45;99961;;;20.58;87.00
69027;BME280;56080;47.594;19.116;2022-09-09T22:07:45;99950;;;20.48;87.45
69027;BME280;56080;47.594;19.116;2022-09-09T22:12:46;99950;;;20.43;88.58
69027;BME280;56080;47.594;19.116;2022-09-09T22:17:45;99955;;;20.31;89.32
69027;BME280;56080;47.594;19.116;2022-09-09T22:22:45;99954;;;20.34;90.33
69027;BME280;56080;47.594;19.116;2022-09-09T22:27:45;99953;;;20.29;91.99
69027;BME280;56080;47.594;19.116;2022-09-09T22:37:45;99955;;;20.23;92.38
69027;BME280;56080;47.594;19.116;2022-09-09T22:42:52;99952;;;20.27;92.27
69027;BME280;56080;47.594;19.116;2022-09-09T22:47:46;99942;;;20.19;92.44
69027;BME280;56080;47.594;19.116;2022-09-09T22:57:45;99941;;;20.14;92.91
69027;BME280;56080;47.594;19.116;2022-09-09T23:02:49;99941;;;20.19;93.06
69027;BME280;56080;47.594;19.116;2022-09-09T23:07:46;99938;;;20.15;93.23
69027;BME280;56080;47.594;19.116;2022-09-09T23:12:46;99933;;;19.96;93.06
69027;BME280;56080;47.594;19.116;2022-09-09T23:17:45;99924;;;19.98;93.52
69027;BME280;56080;47.594;19.116;2022-09-09T23:22:45;99926;;;20.10;93.35
69027;BME280;56080;47.594;19.116;2022-09-09T23:27:45;99931;;;20.11;94.77
69027;BME280;56080;47.594;19.116;2022-09-09T23:32:47;99944;;;20.01;96.62
69027;BME280;56080;47.594;19.116;2022-09-09T23:37:45;99949;;;20.00;96.27
69027;BME280;56080;47.594;19.116;2022-09-09T23:42:46;99942;;;19.90;96.45
69027;BME280;56080;47.594;19.116;2022-09-09T23:52:46;99949;;;19.93;98.09
